createdAt,value
2023-04-17T00:04:04.113Z,17.52
2023-04-17T00:09:00.705Z,19.13
2023-04-17T00:13:57.127Z,18.95
2023-04-17T00:18:54.440Z,17.33
2023-04-17T00:23:50.887Z,17.20
2023-04-17T00:28:48.791Z,18.13
2023-04-17T00:33:46.241Z,17.13
2023-04-17T00:38:42.727Z,18.65
2023-04-17T00:43:39.297Z,17.73
2023-04-17T00:48:38.653Z,17.38
2023-04-17T00:53:36.135Z,17.42
2023-04-17T00:58:34.935Z,17.70
2023-04-17T01:08:43.925Z,18.52
2023-04-17T01:13:46.762Z,17.77
2023-04-17T01:18:43.386Z,17.52
2023-04-17T01:23:54.730Z,20.15
2023-04-17T01:28:52.705Z,18.95
2023-04-17T01:33:49.608Z,17.45
2023-04-17T01:38:46.094Z,19.35
2023-04-17T01:43:44.743Z,19.33
2023-04-17T01:48:41.279Z,19.85
2023-04-17T01:53:40.315Z,18.80
2023-04-17T01:58:36.723Z,18.48
2023-04-17T02:03:33.325Z,18.58
2023-04-17T02:08:30.045Z,18.48
2023-04-17T02:13:26.502Z,19.58
2023-04-17T02:18:23.187Z,19.58
2023-04-17T02:23:19.667Z,19.50
2023-04-17T02:28:16.412Z,20.67
2023-04-17T02:33:12.880Z,21.15
2023-04-17T02:38:09.492Z,19.65
2023-04-17T02:43:05.915Z,20.73
2023-04-17T02:48:03.002Z,21.95
2023-04-17T02:52:59.412Z,20.55
2023-04-17T02:57:55.940Z,20.95
2023-04-17T03:02:52.801Z,24.30
2023-04-17T03:07:53.120Z,21.25
2023-04-17T03:12:49.841Z,24.92
2023-04-17T03:17:47.274Z,23.55
2023-04-17T03:22:43.736Z,21.35
2023-04-17T03:27:40.800Z,22.80
2023-04-17T03:32:38.377Z,24.92
2023-04-17T03:37:34.912Z,24.30
2023-04-17T03:42:31.373Z,26.00
2023-04-17T03:47:27.857Z,23.58
2023-04-17T03:52:24.351Z,25.55
2023-04-17T03:57:20.788Z,26.55
2023-04-17T04:02:17.396Z,30.73
2023-04-17T04:07:14.002Z,26.92
2023-04-17T04:12:11.015Z,26.45
2023-04-17T04:17:07.401Z,27.33
2023-04-17T04:22:06.728Z,29.75
2023-04-17T04:27:06.671Z,29.90
2023-04-17T04:32:04.221Z,29.85
2023-04-17T04:37:01.228Z,28.85
2023-04-17T04:42:05.611Z,28.65
2023-04-17T04:47:02.281Z,29.17
2023-04-17T04:51:58.783Z,29.50
2023-04-17T04:56:55.600Z,28.40
2023-04-17T05:01:52.158Z,29.33
2023-04-17T05:06:48.646Z,30.48
2023-04-17T05:11:45.051Z,30.45
2023-04-17T05:16:41.528Z,28.88
2023-04-17T05:21:37.972Z,32.13
2023-04-17T05:26:34.730Z,29.63
2023-04-17T05:31:31.202Z,31.63
2023-04-17T05:36:27.761Z,32.17
2023-04-17T05:41:24.280Z,30.65
2023-04-17T05:46:20.903Z,32.22
2023-04-17T05:51:17.463Z,31.92
2023-04-17T05:56:14.145Z,30.83
2023-04-17T06:01:13.002Z,30.92
2023-04-17T06:06:09.450Z,29.30
2023-04-17T06:11:06.949Z,30.65
2023-04-17T06:16:03.452Z,32.65
2023-04-17T06:20:59.867Z,30.85
2023-04-17T06:25:56.735Z,32.38
2023-04-17T06:30:53.150Z,29.85
2023-04-17T06:35:49.539Z,29.42
2023-04-17T06:40:46.607Z,28.27
2023-04-17T06:45:43.147Z,29.35
2023-04-17T06:50:39.600Z,25.50
2023-04-17T06:55:38.285Z,24.20
2023-04-17T07:00:34.850Z,24.30
2023-04-17T07:05:31.300Z,25.02
2023-04-17T07:10:27.726Z,23.52
2023-04-17T07:15:24.176Z,24.30
2023-04-17T07:20:21.403Z,23.55
2023-04-17T07:25:17.902Z,22.50
2023-04-17T07:30:14.849Z,23.10
2023-04-17T07:35:11.321Z,22.70
2023-04-17T07:40:09.628Z,24.38
2023-04-17T07:45:06.706Z,23.45
2023-04-17T07:50:03.369Z,20.60
2023-04-17T07:54:59.844Z,21.77
2023-04-17T07:59:56.549Z,21.77
2023-04-17T08:04:54.411Z,18.88
2023-04-17T08:09:51.128Z,18.30
2023-04-17T08:14:47.536Z,17.52
2023-04-17T08:19:43.927Z,17.52
2023-04-17T08:24:40.843Z,16.20
2023-04-17T08:29:37.618Z,18.60
2023-04-17T08:34:36.303Z,16.85
2023-04-17T08:39:32.766Z,16.27
2023-04-17T08:44:29.226Z,15.40
2023-04-17T08:49:29.268Z,15.20
2023-04-17T08:54:25.736Z,16.52
2023-04-17T08:59:23.876Z,14.23
2023-04-17T09:04:39.956Z,14.23
2023-04-17T09:09:50.631Z,12.25
2023-04-17T09:14:47.590Z,12.13
2023-04-17T09:20:07.066Z,11.65
2023-04-17T09:25:04.533Z,11.90
2023-04-17T09:30:04.040Z,11.32
2023-04-17T09:35:03.682Z,11.18
2023-04-17T09:40:02.067Z,11.43
2023-04-17T09:45:18.981Z,11.10
2023-04-17T09:50:21.976Z,11.50
2023-04-17T09:55:23.791Z,12.07
2023-04-17T10:00:21.864Z,12.63
2023-04-17T10:05:20.378Z,12.00
2023-04-17T10:10:33.191Z,13.00
2023-04-17T10:20:28.321Z,12.98
2023-04-17T10:25:26.660Z,12.75
2023-04-17T10:30:23.815Z,15.18
2023-04-17T10:35:20.745Z,12.65
2023-04-17T10:40:22.026Z,11.70
2023-04-17T10:45:19.249Z,12.37
2023-04-17T10:50:17.284Z,13.13
2023-04-17T10:55:20.902Z,14.48
2023-04-17T11:00:18.569Z,14.27
2023-04-17T11:05:15.508Z,12.23
2023-04-17T11:10:13.274Z,12.15
2023-04-17T11:15:10.143Z,11.80
2023-04-17T11:20:06.970Z,10.07
2023-04-17T11:25:04.156Z,10.85
2023-04-17T11:30:01.095Z,9.13
2023-04-17T11:34:57.808Z,10.57
2023-04-17T11:40:06.025Z,9.85
2023-04-17T11:45:04.797Z,9.48
2023-04-17T11:50:01.440Z,9.35
2023-04-17T11:54:58.490Z,8.77
2023-04-17T11:59:55.025Z,9.05
2023-04-17T12:04:52.297Z,8.98
2023-04-17T12:09:56.919Z,10.18
2023-04-17T12:14:53.293Z,9.57
2023-04-17T12:19:50.175Z,9.63
2023-04-17T12:24:46.706Z,8.50
2023-04-17T12:29:44.803Z,9.25
2023-04-17T12:34:41.582Z,11.23
2023-04-17T12:39:38.116Z,10.45
2023-04-17T12:44:34.636Z,9.80
2023-04-17T12:49:31.134Z,10.90
2023-04-17T12:54:27.595Z,10.43
2023-04-17T12:59:23.996Z,10.77
2023-04-17T13:04:20.849Z,9.32
2023-04-17T13:09:17.923Z,9.70
2023-04-17T13:14:15.228Z,9.75
2023-04-17T13:19:12.138Z,8.75
2023-04-17T13:24:14.375Z,9.25
2023-04-17T13:34:07.675Z,9.35
2023-04-17T13:39:07.217Z,8.82
2023-04-17T13:44:04.127Z,8.43
2023-04-17T13:49:00.676Z,8.23
2023-04-17T13:54:00.726Z,8.68
2023-04-17T13:58:57.883Z,8.85
2023-04-17T14:03:54.448Z,8.60
2023-04-17T14:08:51.007Z,9.13
2023-04-17T14:13:47.399Z,8.85
2023-04-17T14:18:45.644Z,9.43
2023-04-17T14:23:43.052Z,9.80
2023-04-17T14:28:39.753Z,8.85
2023-04-17T14:33:36.170Z,9.57
2023-04-17T14:38:33.570Z,9.48
2023-04-17T14:43:30.015Z,9.65
2023-04-17T14:48:26.489Z,8.95
2023-04-17T14:53:22.933Z,9.20
2023-04-17T14:58:19.352Z,8.85
2023-04-17T15:03:15.967Z,9.65
2023-04-17T15:08:12.502Z,9.38
2023-04-17T15:13:08.945Z,9.23
2023-04-17T15:18:05.683Z,9.82
2023-04-17T15:23:02.841Z,9.82
2023-04-17T15:27:59.354Z,9.27
2023-04-17T15:32:55.924Z,9.13
2023-04-17T15:37:52.548Z,10.02
2023-04-17T15:42:49.039Z,9.32
2023-04-17T15:47:45.590Z,9.50
2023-04-17T15:52:42.010Z,9.50
2023-04-17T15:57:39.324Z,9.02
2023-04-17T16:02:36.624Z,9.35
2023-04-17T16:07:33.136Z,9.93
2023-04-17T16:12:29.559Z,9.80
2023-04-17T16:17:26.029Z,9.13
2023-04-17T16:22:22.523Z,8.75
2023-04-17T16:27:18.958Z,8.30
2023-04-17T16:32:15.374Z,8.30
2023-04-17T16:37:11.802Z,8.00
2023-04-17T16:42:09.373Z,8.73
2023-04-17T16:47:13.193Z,8.07
2023-04-17T16:52:10.933Z,8.40
2023-04-17T16:57:08.092Z,8.93
2023-04-17T17:02:04.543Z,9.50
2023-04-17T17:07:01.306Z,8.95
2023-04-17T17:11:57.837Z,8.75
2023-04-17T17:16:54.359Z,8.90
2023-04-17T17:21:50.961Z,9.40
2023-04-17T17:26:47.376Z,9.55
2023-04-17T17:31:43.874Z,11.23
2023-04-17T17:36:40.324Z,9.43
2023-04-17T17:41:36.794Z,9.95
2023-04-17T17:46:35.707Z,10.65
2023-04-17T17:51:32.542Z,10.32
2023-04-17T17:56:29.019Z,9.70
2023-04-17T18:01:25.536Z,8.93
2023-04-17T18:06:22.035Z,10.10
2023-04-17T18:11:18.827Z,9.48
2023-04-17T18:16:15.514Z,9.70
2023-04-17T18:21:12.664Z,8.50
2023-04-17T18:26:09.094Z,9.32
2023-04-17T18:31:05.500Z,8.02
2023-04-17T18:36:01.976Z,8.63
2023-04-17T18:40:59.397Z,8.20
2023-04-17T18:45:55.850Z,8.23
2023-04-17T18:50:52.336Z,7.78
2023-04-17T18:55:48.809Z,8.73
2023-04-17T19:00:45.300Z,8.27
2023-04-17T19:05:41.871Z,8.98
2023-04-17T19:10:40.024Z,9.60
2023-04-17T19:15:36.662Z,10.02
2023-04-17T19:20:33.153Z,10.05
2023-04-17T19:25:29.716Z,9.75
2023-04-17T19:30:26.100Z,11.05
2023-04-17T19:35:22.686Z,9.55
2023-04-17T19:40:24.905Z,11.65
2023-04-17T19:45:22.323Z,10.77
2023-04-17T19:50:18.788Z,10.57
2023-04-17T19:55:15.323Z,9.63
2023-04-17T20:00:12.713Z,10.75
2023-04-17T20:05:09.702Z,11.07
2023-04-17T20:10:06.985Z,10.05
2023-04-17T20:15:03.700Z,12.00
2023-04-17T20:20:00.146Z,10.57
2023-04-17T20:24:56.523Z,10.93
2023-04-17T20:29:53.003Z,11.82
2023-04-17T20:34:49.460Z,10.90
2023-04-17T20:39:45.887Z,11.05
2023-04-17T20:44:42.368Z,11.23
2023-04-17T20:49:38.762Z,11.13
2023-04-17T20:54:35.218Z,12.20
2023-04-17T20:59:34.009Z,10.75
2023-04-17T21:04:33.419Z,10.50
2023-04-17T21:09:30.166Z,12.25
2023-04-17T21:14:27.152Z,11.57
2023-04-17T21:19:26.997Z,11.32
2023-04-17T21:24:24.269Z,10.63
2023-04-17T21:29:20.787Z,11.23
2023-04-17T21:34:17.225Z,11.40
2023-04-17T21:39:13.677Z,11.55
2023-04-17T21:44:10.597Z,11.90
2023-04-17T21:49:07.149Z,11.57
2023-04-17T21:54:04.107Z,12.48
2023-04-17T21:59:00.928Z,11.68
2023-04-17T22:03:57.364Z,11.38
2023-04-17T22:08:53.891Z,11.02
2023-04-17T22:13:50.355Z,11.45
2023-04-17T22:18:46.758Z,9.88
2023-04-17T22:23:43.229Z,11.30
2023-04-17T22:28:39.626Z,12.25
2023-04-17T22:33:36.067Z,11.45
2023-04-17T22:38:32.509Z,12.30
2023-04-17T22:43:28.912Z,12.38
2023-04-17T22:48:25.551Z,12.48
2023-04-17T22:53:22.544Z,12.18
2023-04-17T22:58:19.040Z,11.35
2023-04-17T23:03:15.494Z,12.00
2023-04-17T23:08:11.920Z,12.15
2023-04-17T23:13:08.348Z,12.20
2023-04-17T23:18:04.850Z,13.20
2023-04-17T23:23:01.707Z,13.52
2023-04-17T23:27:58.210Z,14.90
2023-04-17T23:32:55.407Z,16.08
2023-04-17T23:37:51.843Z,15.48
2023-04-17T23:42:48.300Z,15.13
2023-04-17T23:47:44.765Z,14.82
2023-04-17T23:52:41.255Z,16.65
2023-04-17T23:57:38.404Z,15.98
